TAF Text Data
IDs:
Format:
Raw Decoded Include METAR

Data at: 1345 UTC 27 Nov 2021

METAR for:LWSK (Skopje/Alexander the, IL, MK)
Text:LWSK 271330Z 00000KT 9999 BKN043 13/09 Q1004 NOSIG
Temperature: 13.0°C ( 55°F)
Dewpoint: 9.0°C ( 48°F) [RH = 77%]
Pressure (altimeter):29.65 inches Hg (1004.0 mb)
Winds:calm
Visibility:6 or more sm (10+ km)
Ceiling:4300 feet AGL
Clouds: broken clouds at 4300 feet AGL

TAF for:LWSK (Skopje/Alexander the, IL, MK) issued at 1140 UTC 27 Nov 2021
Text:TAF LWSK 271140Z 2712/2812 VRB03KT 9999 SCT050
Forecast period:1200 UTC 27 November 2021 to 1200 UTC 28 November 2021
Forecast type:FROM: standard forecast or significant change
Winds:variable direction winds at 3 MPH (3 knots; 1.5 m/s)
Visibility:6 or more sm (10+ km)
Ceiling:at least 12,000 feet AGL
Clouds: scattered clouds at 5000 feet AGL